sensor_id;sensor_type;location;lat;lon;timestamp;P1;durP1;ratioP1;P2;durP2;ratioP2
70365;SDS011;57787;48.216;12.396;2023-01-29T00:00:13;29.85;;;14.57;;
70365;SDS011;57787;48.216;12.396;2023-01-29T00:02:42;31.13;;;15.85;;
70365;SDS011;57787;48.216;12.396;2023-01-29T00:05:11;26.08;;;13.90;;
70365;SDS011;57787;48.216;12.396;2023-01-29T00:07:54;30.63;;;16.27;;
70365;SDS011;57787;48.216;12.396;2023-01-29T00:10:23;33.97;;;16.90;;
70365;SDS011;57787;48.216;12.396;2023-01-29T00:12:52;29.05;;;14.75;;
70365;SDS011;57787;48.216;12.396;2023-01-29T00:15:21;35.45;;;16.17;;
70365;SDS011;57787;48.216;12.396;2023-01-29T00:17:49;31.27;;;15.43;;
70365;SDS011;57787;48.216;12.396;2023-01-29T00:20:17;30.85;;;15.77;;
70365;SDS011;57787;48.216;12.396;2023-01-29T00:22:48;28.08;;;13.77;;
70365;SDS011;57787;48.216;12.396;2023-01-29T00:25:16;29.33;;;14.77;;
70365;SDS011;57787;48.216;12.396;2023-01-29T00:27:44;28.80;;;15.35;;
70365;SDS011;57787;48.216;12.396;2023-01-29T00:32:41;29.88;;;13.43;;
70365;SDS011;57787;48.216;12.396;2023-01-29T00:35:10;32.88;;;15.40;;
70365;SDS011;57787;48.216;12.396;2023-01-29T00:37:38;28.23;;;14.52;;
70365;SDS011;57787;48.216;12.396;2023-01-29T00:40:06;40.92;;;17.95;;
70365;SDS011;57787;48.216;12.396;2023-01-29T00:42:35;44.78;;;19.77;;
70365;SDS011;57787;48.216;12.396;2023-01-29T00:45:22;73.63;;;27.05;;
70365;SDS011;57787;48.216;12.396;2023-01-29T00:47:50;29.67;;;14.68;;
70365;SDS011;57787;48.216;12.396;2023-01-29T00:50:18;35.75;;;16.70;;
70365;SDS011;57787;48.216;12.396;2023-01-29T00:52:46;62.28;;;22.00;;
70365;SDS011;57787;48.216;12.396;2023-01-29T00:55:16;58.03;;;22.95;;
70365;SDS011;57787;48.216;12.396;2023-01-29T00:57:45;86.13;;;30.08;;
70365;SDS011;57787;48.216;12.396;2023-01-29T01:00:15;34.05;;;16.52;;
70365;SDS011;57787;48.216;12.396;2023-01-29T01:02:45;29.73;;;14.50;;
70365;SDS011;57787;48.216;12.396;2023-01-29T01:05:33;33.53;;;14.87;;
70365;SDS011;57787;48.216;12.396;2023-01-29T01:08:01;30.05;;;15.15;;
70365;SDS011;57787;48.216;12.396;2023-01-29T01:10:31;26.85;;;13.88;;
70365;SDS011;57787;48.216;12.396;2023-01-29T01:13:04;49.67;;;22.40;;
70365;SDS011;57787;48.216;12.396;2023-01-29T01:15:34;32.33;;;16.08;;
70365;SDS011;57787;48.216;12.396;2023-01-29T01:18:04;85.68;;;32.05;;
70365;SDS011;57787;48.216;12.396;2023-01-29T01:20:33;63.88;;;24.55;;
70365;SDS011;57787;48.216;12.396;2023-01-29T01:23:02;26.90;;;13.23;;
70365;SDS011;57787;48.216;12.396;2023-01-29T01:25:30;46.08;;;18.70;;
70365;SDS011;57787;48.216;12.396;2023-01-29T01:27:59;47.53;;;19.77;;
70365;SDS011;57787;48.216;12.396;2023-01-29T01:30:27;46.55;;;17.13;;
70365;SDS011;57787;48.216;12.396;2023-01-29T01:32:55;42.75;;;18.73;;
70365;SDS011;57787;48.216;12.396;2023-01-29T01:35:23;86.97;;;29.85;;
70365;SDS011;57787;48.216;12.396;2023-01-29T01:37:52;25.52;;;12.52;;
70365;SDS011;57787;48.216;12.396;2023-01-29T01:40:20;26.23;;;12.77;;
70365;SDS011;57787;48.216;12.396;2023-01-29T01:42:51;86.22;;;26.73;;
70365;SDS011;57787;48.216;12.396;2023-01-29T01:45:29;148.30;;;40.85;;
70365;SDS011;57787;48.216;12.396;2023-01-29T01:50:44;56.55;;;22.65;;
70365;SDS011;57787;48.216;12.396;2023-01-29T01:53:18;47.05;;;17.17;;
70365;SDS011;57787;48.216;12.396;2023-01-29T01:55:51;30.67;;;14.48;;
70365;SDS011;57787;48.216;12.396;2023-01-29T01:58:31;27.38;;;13.90;;
70365;SDS011;57787;48.216;12.396;2023-01-29T02:01:03;36.42;;;18.83;;
70365;SDS011;57787;48.216;12.396;2023-01-29T02:03:39;23.38;;;12.07;;
70365;SDS011;57787;48.216;12.396;2023-01-29T02:06:34;22.35;;;12.00;;
70365;SDS011;57787;48.216;12.396;2023-01-29T02:09:26;22.05;;;12.15;;
70365;SDS011;57787;48.216;12.396;2023-01-29T02:12:03;17.92;;;10.13;;
70365;SDS011;57787;48.216;12.396;2023-01-29T02:14:35;20.98;;;11.68;;
70365;SDS011;57787;48.216;12.396;2023-01-29T02:17:11;21.95;;;11.77;;
70365;SDS011;57787;48.216;12.396;2023-01-29T02:30:57;20.00;;;10.27;;
70365;SDS011;57787;48.216;12.396;2023-01-29T02:36:55;21.20;;;11.95;;
70365;SDS011;57787;48.216;12.396;2023-01-29T02:39:46;19.63;;;10.95;;
70365;SDS011;57787;48.216;12.396;2023-01-29T02:43:07;19.50;;;10.27;;
70365;SDS011;57787;48.216;12.396;2023-01-29T02:45:27;20.02;;;9.90;;
70365;SDS011;57787;48.216;12.396;2023-01-29T02:48:17;20.13;;;11.57;;
70365;SDS011;57787;48.216;12.396;2023-01-29T02:50:50;18.48;;;10.77;;
70365;SDS011;57787;48.216;12.396;2023-01-29T02:53:31;19.30;;;10.63;;
70365;SDS011;57787;48.216;12.396;2023-01-29T02:56:02;22.17;;;12.50;;
70365;SDS011;57787;48.216;12.396;2023-01-29T02:58:41;18.75;;;10.73;;
70365;SDS011;57787;48.216;12.396;2023-01-29T03:04:22;20.75;;;11.30;;
70365;SDS011;57787;48.216;12.396;2023-01-29T03:07:02;19.35;;;10.38;;
70365;SDS011;57787;48.216;12.396;2023-01-29T03:09:35;20.50;;;11.23;;
70365;SDS011;57787;48.216;12.396;2023-01-29T03:12:16;20.45;;;11.30;;
70365;SDS011;57787;48.216;12.396;2023-01-29T03:15:01;20.83;;;11.45;;
70365;SDS011;57787;48.216;12.396;2023-01-29T03:17:52;20.40;;;10.65;;
70365;SDS011;57787;48.216;12.396;2023-01-29T03:20:36;19.77;;;10.93;;
70365;SDS011;57787;48.216;12.396;2023-01-29T03:23:21;21.77;;;10.57;;
70365;SDS011;57787;48.216;12.396;2023-01-29T03:26:07;22.77;;;12.18;;
70365;SDS011;57787;48.216;12.396;2023-01-29T03:28:58;19.15;;;10.13;;
70365;SDS011;57787;48.216;12.396;2023-01-29T03:31:47;21.10;;;11.85;;
70365;SDS011;57787;48.216;12.396;2023-01-29T03:34:35;19.92;;;11.20;;
70365;SDS011;57787;48.216;12.396;2023-01-29T03:40:11;19.95;;;11.27;;
70365;SDS011;57787;48.216;12.396;2023-01-29T03:43:02;19.55;;;10.65;;
70365;SDS011;57787;48.216;12.396;2023-01-29T03:45:56;17.90;;;10.10;;
70365;SDS011;57787;48.216;12.396;2023-01-29T03:51:19;22.70;;;10.68;;
70365;SDS011;57787;48.216;12.396;2023-01-29T03:56:58;22.23;;;11.75;;
70365;SDS011;57787;48.216;12.396;2023-01-29T04:02:47;21.95;;;11.82;;
70365;SDS011;57787;48.216;12.396;2023-01-29T04:05:19;20.88;;;12.10;;
70365;SDS011;57787;48.216;12.396;2023-01-29T04:07:50;21.27;;;12.07;;
70365;SDS011;57787;48.216;12.396;2023-01-29T04:10:23;24.30;;;11.57;;
70365;SDS011;57787;48.216;12.396;2023-01-29T04:12:55;22.15;;;10.80;;
70365;SDS011;57787;48.216;12.396;2023-01-29T04:15:27;21.20;;;11.32;;
70365;SDS011;57787;48.216;12.396;2023-01-29T04:17:58;20.85;;;11.88;;
70365;SDS011;57787;48.216;12.396;2023-01-29T04:20:26;25.45;;;12.38;;
70365;SDS011;57787;48.216;12.396;2023-01-29T04:22:54;20.60;;;12.07;;
70365;SDS011;57787;48.216;12.396;2023-01-29T04:27:57;22.48;;;12.07;;
70365;SDS011;57787;48.216;12.396;2023-01-29T04:38:56;22.05;;;11.98;;
70365;SDS011;57787;48.216;12.396;2023-01-29T04:41:41;22.50;;;11.88;;
70365;SDS011;57787;48.216;12.396;2023-01-29T04:52:41;23.95;;;12.75;;
70365;SDS011;57787;48.216;12.396;2023-01-29T05:00:59;22.80;;;12.25;;
70365;SDS011;57787;48.216;12.396;2023-01-29T05:03:31;23.45;;;11.48;;
70365;SDS011;57787;48.216;12.396;2023-01-29T05:06:00;19.45;;;12.10;;
70365;SDS011;57787;48.216;12.396;2023-01-29T05:08:30;23.20;;;12.27;;
70365;SDS011;57787;48.216;12.396;2023-01-29T05:10:59;21.70;;;11.82;;
70365;SDS011;57787;48.216;12.396;2023-01-29T05:13:28;22.05;;;12.52;;
70365;SDS011;57787;48.216;12.396;2023-01-29T05:18:31;21.85;;;11.60;;
70365;SDS011;57787;48.216;12.396;2023-01-29T05:21:01;27.30;;;13.07;;
70365;SDS011;57787;48.216;12.396;2023-01-29T05:23:32;20.65;;;11.05;;
70365;SDS011;57787;48.216;12.396;2023-01-29T05:25:59;22.08;;;11.85;;
70365;SDS011;57787;48.216;12.396;2023-01-29T05:28:27;19.45;;;11.15;;
70365;SDS011;57787;48.216;12.396;2023-01-29T05:33:24;20.20;;;10.52;;
70365;SDS011;57787;48.216;12.396;2023-01-29T05:35:54;22.70;;;11.52;;
70365;SDS011;57787;48.216;12.396;2023-01-29T05:38:22;18.02;;;10.32;;
70365;SDS011;57787;48.216;12.396;2023-01-29T05:40:50;20.88;;;11.00;;
70365;SDS011;57787;48.216;12.396;2023-01-29T05:45:53;19.30;;;11.70;;
70365;SDS011;57787;48.216;12.396;2023-01-29T05:48:23;22.17;;;11.63;;
70365;SDS011;57787;48.216;12.396;2023-01-29T05:50:51;19.27;;;10.60;;
70365;SDS011;57787;48.216;12.396;2023-01-29T05:53:19;22.52;;;12.30;;
70365;SDS011;57787;48.216;12.396;2023-01-29T05:55:47;19.25;;;10.82;;
70365;SDS011;57787;48.216;12.396;2023-01-29T05:58:16;22.45;;;11.43;;
70365;SDS011;57787;48.216;12.396;2023-01-29T06:00:45;19.83;;;11.65;;
70365;SDS011;57787;48.216;12.396;2023-01-29T06:05:40;17.80;;;10.23;;
70365;SDS011;57787;48.216;12.396;2023-01-29T06:08:08;22.17;;;11.00;;
70365;SDS011;57787;48.216;12.396;2023-01-29T06:10:36;20.48;;;10.50;;
70365;SDS011;57787;48.216;12.396;2023-01-29T06:13:04;18.45;;;10.10;;
70365;SDS011;57787;48.216;12.396;2023-01-29T06:15:31;20.58;;;11.43;;
70365;SDS011;57787;48.216;12.396;2023-01-29T06:17:58;23.42;;;12.45;;
70365;SDS011;57787;48.216;12.396;2023-01-29T06:22:54;19.50;;;11.05;;
70365;SDS011;57787;48.216;12.396;2023-01-29T06:25:21;19.48;;;11.40;;
70365;SDS011;57787;48.216;12.396;2023-01-29T06:30:17;19.38;;;11.38;;
70365;SDS011;57787;48.216;12.396;2023-01-29T06:32:45;20.90;;;11.32;;
70365;SDS011;57787;48.216;12.396;2023-01-29T06:37:40;22.25;;;11.18;;
70365;SDS011;57787;48.216;12.396;2023-01-29T06:40:11;21.63;;;11.43;;
70365;SDS011;57787;48.216;12.396;2023-01-29T06:42:46;21.55;;;10.40;;
70365;SDS011;57787;48.216;12.396;2023-01-29T06:45:14;17.45;;;10.40;;
70365;SDS011;57787;48.216;12.396;2023-01-29T06:47:42;21.17;;;11.88;;
70365;SDS011;57787;48.216;12.396;2023-01-29T06:50:10;31.15;;;14.38;;
70365;SDS011;57787;48.216;12.396;2023-01-29T06:52:38;21.08;;;11.85;;
70365;SDS011;57787;48.216;12.396;2023-01-29T06:55:06;24.20;;;13.38;;
70365;SDS011;57787;48.216;12.396;2023-01-29T06:57:34;23.38;;;11.60;;
70365;SDS011;57787;48.216;12.396;2023-01-29T07:00:04;24.67;;;13.05;;
70365;SDS011;57787;48.216;12.396;2023-01-29T07:02:32;23.63;;;12.98;;
70365;SDS011;57787;48.216;12.396;2023-01-29T07:07:28;23.20;;;11.85;;
70365;SDS011;57787;48.216;12.396;2023-01-29T07:09:55;23.15;;;11.25;;
70365;SDS011;57787;48.216;12.396;2023-01-29T07:12:23;22.70;;;11.30;;
70365;SDS011;57787;48.216;12.396;2023-01-29T07:14:50;26.13;;;12.70;;
70365;SDS011;57787;48.216;12.396;2023-01-29T07:17:18;24.92;;;13.82;;
70365;SDS011;57787;48.216;12.396;2023-01-29T07:19:46;28.55;;;14.30;;
70365;SDS011;57787;48.216;12.396;2023-01-29T07:22:14;25.40;;;13.65;;
70365;SDS011;57787;48.216;12.396;2023-01-29T07:24:42;28.05;;;13.93;;
70365;SDS011;57787;48.216;12.396;2023-01-29T07:29:37;50.67;;;21.05;;
70365;SDS011;57787;48.216;12.396;2023-01-29T07:32:05;25.60;;;12.45;;
70365;SDS011;57787;48.216;12.396;2023-01-29T07:34:34;25.45;;;13.02;;
70365;SDS011;57787;48.216;12.396;2023-01-29T07:37:01;23.20;;;13.57;;
70365;SDS011;57787;48.216;12.396;2023-01-29T07:39:29;21.98;;;12.55;;
70365;SDS011;57787;48.216;12.396;2023-01-29T07:44:24;22.35;;;11.55;;
70365;SDS011;57787;48.216;12.396;2023-01-29T07:46:52;26.33;;;14.25;;
70365;SDS011;57787;48.216;12.396;2023-01-29T07:51:47;28.50;;;13.18;;
70365;SDS011;57787;48.216;12.396;2023-01-29T07:54:14;29.15;;;15.30;;
70365;SDS011;57787;48.216;12.396;2023-01-29T07:56:42;24.98;;;13.90;;
70365;SDS011;57787;48.216;12.396;2023-01-29T07:59:09;31.50;;;16.52;;
70365;SDS011;57787;48.216;12.396;2023-01-29T08:04:05;34.65;;;16.02;;
70365;SDS011;57787;48.216;12.396;2023-01-29T08:06:32;31.70;;;16.75;;
70365;SDS011;57787;48.216;12.396;2023-01-29T08:09:01;36.22;;;16.02;;
70365;SDS011;57787;48.216;12.396;2023-01-29T08:11:29;31.23;;;16.33;;
70365;SDS011;57787;48.216;12.396;2023-01-29T08:13:57;30.38;;;14.52;;
70365;SDS011;57787;48.216;12.396;2023-01-29T08:16:24;26.02;;;15.13;;
70365;SDS011;57787;48.216;12.396;2023-01-29T08:18:54;46.45;;;22.42;;
70365;SDS011;57787;48.216;12.396;2023-01-29T08:21:22;34.42;;;19.02;;
70365;SDS011;57787;48.216;12.396;2023-01-29T08:23:50;27.77;;;15.73;;
70365;SDS011;57787;48.216;12.396;2023-01-29T08:26:17;28.75;;;15.57;;
70365;SDS011;57787;48.216;12.396;2023-01-29T08:28:44;28.67;;;14.95;;
70365;SDS011;57787;48.216;12.396;2023-01-29T08:31:14;32.58;;;16.63;;
70365;SDS011;57787;48.216;12.396;2023-01-29T08:33:43;25.65;;;14.35;;
70365;SDS011;57787;48.216;12.396;2023-01-29T08:36:11;26.75;;;14.13;;
70365;SDS011;57787;48.216;12.396;2023-01-29T08:38:39;26.50;;;13.52;;
70365;SDS011;57787;48.216;12.396;2023-01-29T08:41:08;27.08;;;14.13;;
70365;SDS011;57787;48.216;12.396;2023-01-29T08:43:36;22.95;;;11.55;;
70365;SDS011;57787;48.216;12.396;2023-01-29T08:46:05;24.23;;;12.20;;
70365;SDS011;57787;48.216;12.396;2023-01-29T08:48:34;19.88;;;10.88;;
70365;SDS011;57787;48.216;12.396;2023-01-29T08:51:02;24.55;;;13.55;;
70365;SDS011;57787;48.216;12.396;2023-01-29T08:53:31;23.25;;;12.68;;
70365;SDS011;57787;48.216;12.396;2023-01-29T08:55:59;25.67;;;13.75;;
70365;SDS011;57787;48.216;12.396;2023-01-29T08:58:28;21.27;;;11.88;;
70365;SDS011;57787;48.216;12.396;2023-01-29T09:00:56;18.88;;;10.70;;
70365;SDS011;57787;48.216;12.396;2023-01-29T09:03:32;20.98;;;11.88;;
70365;SDS011;57787;48.216;12.396;2023-01-29T09:06:00;21.80;;;11.07;;
70365;SDS011;57787;48.216;12.396;2023-01-29T09:08:29;19.25;;;11.50;;
70365;SDS011;57787;48.216;12.396;2023-01-29T09:10:58;22.45;;;11.88;;
70365;SDS011;57787;48.216;12.396;2023-01-29T09:13:27;17.90;;;9.73;;
70365;SDS011;57787;48.216;12.396;2023-01-29T09:15:57;18.77;;;9.57;;
70365;SDS011;57787;48.216;12.396;2023-01-29T09:18:27;37.42;;;23.73;;
70365;SDS011;57787;48.216;12.396;2023-01-29T09:20:57;24.35;;;12.48;;
70365;SDS011;57787;48.216;12.396;2023-01-29T09:23:25;18.60;;;10.02;;
70365;SDS011;57787;48.216;12.396;2023-01-29T09:28:20;46.67;;;18.48;;
70365;SDS011;57787;48.216;12.396;2023-01-29T09:30:48;35.25;;;16.10;;
70365;SDS011;57787;48.216;12.396;2023-01-29T09:33:17;26.98;;;13.73;;
70365;SDS011;57787;48.216;12.396;2023-01-29T09:35:45;22.45;;;11.02;;
70365;SDS011;57787;48.216;12.396;2023-01-29T09:38:13;21.10;;;12.15;;
70365;SDS011;57787;48.216;12.396;2023-01-29T09:43:57;19.38;;;10.95;;
70365;SDS011;57787;48.216;12.396;2023-01-29T09:46:34;20.58;;;11.38;;
70365;SDS011;57787;48.216;12.396;2023-01-29T09:51:56;18.65;;;9.85;;
70365;SDS011;57787;48.216;12.396;2023-01-29T09:54:44;22.88;;;10.88;;
70365;SDS011;57787;48.216;12.396;2023-01-29T10:08:47;20.48;;;9.68;;
70365;SDS011;57787;48.216;12.396;2023-01-29T10:14:14;17.38;;;9.68;;
70365;SDS011;57787;48.216;12.396;2023-01-29T10:17:03;20.33;;;11.73;;
70365;SDS011;57787;48.216;12.396;2023-01-29T10:22:50;20.58;;;10.40;;
70365;SDS011;57787;48.216;12.396;2023-01-29T10:25:20;17.67;;;9.00;;
70365;SDS011;57787;48.216;12.396;2023-01-29T10:27:50;18.63;;;9.57;;
70365;SDS011;57787;48.216;12.396;2023-01-29T10:30:33;19.55;;;9.05;;
70365;SDS011;57787;48.216;12.396;2023-01-29T10:33:10;15.20;;;8.35;;
70365;SDS011;57787;48.216;12.396;2023-01-29T10:35:45;15.98;;;8.68;;
70365;SDS011;57787;48.216;12.396;2023-01-29T10:43:38;15.82;;;8.70;;
70365;SDS011;57787;48.216;12.396;2023-01-29T10:49:07;17.45;;;9.23;;
70365;SDS011;57787;48.216;12.396;2023-01-29T10:52:01;16.35;;;9.10;;
70365;SDS011;57787;48.216;12.396;2023-01-29T11:00:07;18.67;;;9.48;;
70365;SDS011;57787;48.216;12.396;2023-01-29T11:02:42;16.98;;;8.68;;
70365;SDS011;57787;48.216;12.396;2023-01-29T11:05:32;14.55;;;7.88;;
70365;SDS011;57787;48.216;12.396;2023-01-29T11:08:22;15.98;;;8.23;;
70365;SDS011;57787;48.216;12.396;2023-01-29T11:11:04;18.55;;;9.63;;
70365;SDS011;57787;48.216;12.396;2023-01-29T11:13:48;15.65;;;8.82;;
70365;SDS011;57787;48.216;12.396;2023-01-29T11:16:17;15.30;;;8.27;;
70365;SDS011;57787;48.216;12.396;2023-01-29T11:21:19;16.70;;;8.77;;
70365;SDS011;57787;48.216;12.396;2023-01-29T11:23:47;18.92;;;9.52;;
70365;SDS011;57787;48.216;12.396;2023-01-29T11:26:16;15.00;;;8.38;;
70365;SDS011;57787;48.216;12.396;2023-01-29T11:28:50;15.98;;;8.20;;
70365;SDS011;57787;48.216;12.396;2023-01-29T11:31:26;15.60;;;8.52;;
70365;SDS011;57787;48.216;12.396;2023-01-29T11:34:05;15.70;;;8.52;;
70365;SDS011;57787;48.216;12.396;2023-01-29T11:36:42;16.02;;;9.10;;
70365;SDS011;57787;48.216;12.396;2023-01-29T11:41:48;14.52;;;7.95;;
70365;SDS011;57787;48.216;12.396;2023-01-29T11:47:21;19.23;;;9.50;;
70365;SDS011;57787;48.216;12.396;2023-01-29T11:49:54;17.30;;;9.50;;
70365;SDS011;57787;48.216;12.396;2023-01-29T11:52:25;15.70;;;8.80;;
70365;SDS011;57787;48.216;12.396;2023-01-29T11:55:02;17.83;;;8.70;;
70365;SDS011;57787;48.216;12.396;2023-01-29T11:57:34;14.57;;;7.70;;
70365;SDS011;57787;48.216;12.396;2023-01-29T12:05:26;17.58;;;8.77;;
70365;SDS011;57787;48.216;12.396;2023-01-29T12:07:55;15.20;;;8.27;;
70365;SDS011;57787;48.216;12.396;2023-01-29T12:10:40;18.00;;;9.50;;
70365;SDS011;57787;48.216;12.396;2023-01-29T12:15:37;18.65;;;8.55;;
70365;SDS011;57787;48.216;12.396;2023-01-29T12:21:03;17.10;;;8.43;;
70365;SDS011;57787;48.216;12.396;2023-01-29T12:23:35;16.90;;;8.48;;
70365;SDS011;57787;48.216;12.396;2023-01-29T12:26:20;14.90;;;8.05;;
70365;SDS011;57787;48.216;12.396;2023-01-29T12:29:20;19.90;;;8.10;;
70365;SDS011;57787;48.216;12.396;2023-01-29T12:32:06;14.73;;;8.30;;
70365;SDS011;57787;48.216;12.396;2023-01-29T12:34:54;13.95;;;7.50;;
70365;SDS011;57787;48.216;12.396;2023-01-29T12:37:47;17.25;;;8.38;;
70365;SDS011;57787;48.216;12.396;2023-01-29T12:40:20;18.00;;;8.45;;
70365;SDS011;57787;48.216;12.396;2023-01-29T12:42:52;18.40;;;9.55;;
70365;SDS011;57787;48.216;12.396;2023-01-29T12:45:25;18.50;;;8.82;;
70365;SDS011;57787;48.216;12.396;2023-01-29T12:47:59;131.73;;;29.65;;
70365;SDS011;57787;48.216;12.396;2023-01-29T12:50:35;65.18;;;26.60;;
70365;SDS011;57787;48.216;12.396;2023-01-29T12:55:49;21.83;;;10.55;;
70365;SDS011;57787;48.216;12.396;2023-01-29T12:58:44;19.52;;;10.10;;
70365;SDS011;57787;48.216;12.396;2023-01-29T13:01:33;25.30;;;12.07;;
70365;SDS011;57787;48.216;12.396;2023-01-29T13:04:06;19.88;;;10.55;;
70365;SDS011;57787;48.216;12.396;2023-01-29T13:07:00;19.88;;;9.38;;
70365;SDS011;57787;48.216;12.396;2023-01-29T13:09:51;22.08;;;9.65;;
70365;SDS011;57787;48.216;12.396;2023-01-29T13:12:22;19.35;;;10.25;;
70365;SDS011;57787;48.216;12.396;2023-01-29T13:17:52;18.10;;;8.52;;
70365;SDS011;57787;48.216;12.396;2023-01-29T13:20:30;20.33;;;9.90;;
70365;SDS011;57787;48.216;12.396;2023-01-29T13:23:20;18.48;;;10.35;;
70365;SDS011;57787;48.216;12.396;2023-01-29T13:25:50;43.35;;;21.25;;
70365;SDS011;57787;48.216;12.396;2023-01-29T13:28:20;60.92;;;35.92;;
70365;SDS011;57787;48.216;12.396;2023-01-29T13:31:10;44.42;;;25.13;;
70365;SDS011;57787;48.216;12.396;2023-01-29T13:33:50;23.80;;;14.38;;
70365;SDS011;57787;48.216;12.396;2023-01-29T13:36:28;20.90;;;11.02;;
70365;SDS011;57787;48.216;12.396;2023-01-29T13:39:01;23.63;;;11.38;;
70365;SDS011;57787;48.216;12.396;2023-01-29T13:41:32;22.50;;;11.40;;
70365;SDS011;57787;48.216;12.396;2023-01-29T13:44:04;20.70;;;10.57;;
70365;SDS011;57787;48.216;12.396;2023-01-29T13:46:48;24.17;;;11.40;;
70365;SDS011;57787;48.216;12.396;2023-01-29T13:49:26;22.47;;;11.57;;
70365;SDS011;57787;48.216;12.396;2023-01-29T13:51:58;18.88;;;9.52;;
70365;SDS011;57787;48.216;12.396;2023-01-29T14:08:35;23.08;;;10.80;;
70365;SDS011;57787;48.216;12.396;2023-01-29T14:13:45;18.92;;;9.00;;
70365;SDS011;57787;48.216;12.396;2023-01-29T14:21:19;21.63;;;10.10;;
70365;SDS011;57787;48.216;12.396;2023-01-29T14:23:57;19.02;;;9.35;;
70365;SDS011;57787;48.216;12.396;2023-01-29T14:26:46;20.40;;;10.05;;
70365;SDS011;57787;48.216;12.396;2023-01-29T14:32:10;21.90;;;10.45;;
70365;SDS011;57787;48.216;12.396;2023-01-29T14:34:53;21.25;;;9.90;;
70365;SDS011;57787;48.216;12.396;2023-01-29T14:37:38;18.67;;;9.00;;
70365;SDS011;57787;48.216;12.396;2023-01-29T14:42:43;19.63;;;10.18;;
70365;SDS011;57787;48.216;12.396;2023-01-29T14:45:30;30.77;;;16.57;;
70365;SDS011;57787;48.216;12.396;2023-01-29T14:50:47;20.48;;;10.82;;
70365;SDS011;57787;48.216;12.396;2023-01-29T14:53:26;18.65;;;10.77;;
70365;SDS011;57787;48.216;12.396;2023-01-29T14:56:21;18.27;;;10.18;;
70365;SDS011;57787;48.216;12.396;2023-01-29T15:01:46;20.08;;;9.73;;
70365;SDS011;57787;48.216;12.396;2023-01-29T15:06:54;18.63;;;9.75;;
70365;SDS011;57787;48.216;12.396;2023-01-29T15:09:46;19.63;;;9.32;;
70365;SDS011;57787;48.216;12.396;2023-01-29T15:15:20;18.98;;;9.95;;
70365;SDS011;57787;48.216;12.396;2023-01-29T15:17:55;17.30;;;8.80;;
70365;SDS011;57787;48.216;12.396;2023-01-29T15:20:29;15.98;;;8.25;;
70365;SDS011;57787;48.216;12.396;2023-01-29T15:22:59;17.70;;;8.73;;
70365;SDS011;57787;48.216;12.396;2023-01-29T15:25:32;18.08;;;8.82;;
70365;SDS011;57787;48.216;12.396;2023-01-29T15:28:13;17.40;;;8.88;;
70365;SDS011;57787;48.216;12.396;2023-01-29T15:30:41;18.38;;;8.93;;
70365;SDS011;57787;48.216;12.396;2023-01-29T15:33:12;18.25;;;9.75;;
70365;SDS011;57787;48.216;12.396;2023-01-29T15:35:41;18.83;;;9.02;;
70365;SDS011;57787;48.216;12.396;2023-01-29T15:38:22;17.70;;;9.15;;
70365;SDS011;57787;48.216;12.396;2023-01-29T15:40:56;17.10;;;9.50;;
70365;SDS011;57787;48.216;12.396;2023-01-29T15:43:29;18.85;;;10.75;;
70365;SDS011;57787;48.216;12.396;2023-01-29T15:46:20;17.52;;;9.38;;
70365;SDS011;57787;48.216;12.396;2023-01-29T15:51:19;15.32;;;9.18;;
70365;SDS011;57787;48.216;12.396;2023-01-29T15:53:49;22.80;;;12.80;;
70365;SDS011;57787;48.216;12.396;2023-01-29T15:56:19;21.30;;;11.07;;
70365;SDS011;57787;48.216;12.396;2023-01-29T15:58:50;19.77;;;10.18;;
70365;SDS011;57787;48.216;12.396;2023-01-29T16:01:18;18.67;;;9.63;;
70365;SDS011;57787;48.216;12.396;2023-01-29T16:03:48;19.80;;;10.23;;
70365;SDS011;57787;48.216;12.396;2023-01-29T16:06:16;18.92;;;9.65;;
70365;SDS011;57787;48.216;12.396;2023-01-29T16:08:47;18.95;;;10.15;;
70365;SDS011;57787;48.216;12.396;2023-01-29T16:11:20;18.08;;;9.27;;
70365;SDS011;57787;48.216;12.396;2023-01-29T16:13:48;19.88;;;11.02;;
70365;SDS011;57787;48.216;12.396;2023-01-29T16:16:18;21.60;;;10.40;;
70365;SDS011;57787;48.216;12.396;2023-01-29T16:18:50;18.00;;;10.35;;
70365;SDS011;57787;48.216;12.396;2023-01-29T16:21:29;19.40;;;11.52;;
70365;SDS011;57787;48.216;12.396;2023-01-29T16:24:09;18.20;;;10.38;;
70365;SDS011;57787;48.216;12.396;2023-01-29T16:26:44;21.77;;;10.85;;
70365;SDS011;57787;48.216;12.396;2023-01-29T16:29:14;19.48;;;10.32;;
70365;SDS011;57787;48.216;12.396;2023-01-29T16:31:45;19.05;;;10.05;;
70365;SDS011;57787;48.216;12.396;2023-01-29T16:34:18;20.70;;;11.00;;
70365;SDS011;57787;48.216;12.396;2023-01-29T16:36:53;17.55;;;9.77;;
70365;SDS011;57787;48.216;12.396;2023-01-29T16:39:29;19.13;;;9.40;;
70365;SDS011;57787;48.216;12.396;2023-01-29T16:44:39;18.33;;;10.27;;
70365;SDS011;57787;48.216;12.396;2023-01-29T16:47:12;21.05;;;10.50;;
70365;SDS011;57787;48.216;12.396;2023-01-29T16:49:49;20.95;;;10.85;;
70365;SDS011;57787;48.216;12.396;2023-01-29T16:52:23;19.30;;;10.43;;
70365;SDS011;57787;48.216;12.396;2023-01-29T16:54:57;17.83;;;9.63;;
70365;SDS011;57787;48.216;12.396;2023-01-29T16:57:29;20.52;;;11.23;;
70365;SDS011;57787;48.216;12.396;2023-01-29T17:00:00;19.92;;;11.13;;
70365;SDS011;57787;48.216;12.396;2023-01-29T17:02:35;20.25;;;10.93;;
70365;SDS011;57787;48.216;12.396;2023-01-29T17:05:05;20.58;;;11.57;;
70365;SDS011;57787;48.216;12.396;2023-01-29T17:07:43;23.20;;;12.52;;
70365;SDS011;57787;48.216;12.396;2023-01-29T17:10:17;30.25;;;16.52;;
70365;SDS011;57787;48.216;12.396;2023-01-29T17:12:49;25.73;;;13.95;;
70365;SDS011;57787;48.216;12.396;2023-01-29T17:15:26;24.58;;;14.25;;
70365;SDS011;57787;48.216;12.396;2023-01-29T17:18:21;26.77;;;14.98;;
70365;SDS011;57787;48.216;12.396;2023-01-29T17:20:50;29.95;;;16.23;;
70365;SDS011;57787;48.216;12.396;2023-01-29T17:23:21;20.83;;;11.50;;
70365;SDS011;57787;48.216;12.396;2023-01-29T17:25:51;18.83;;;10.55;;
70365;SDS011;57787;48.216;12.396;2023-01-29T17:28:19;22.50;;;10.45;;
70365;SDS011;57787;48.216;12.396;2023-01-29T17:30:48;19.08;;;10.63;;
70365;SDS011;57787;48.216;12.396;2023-01-29T17:33:32;20.15;;;10.20;;
70365;SDS011;57787;48.216;12.396;2023-01-29T17:36:01;19.25;;;11.23;;
70365;SDS011;57787;48.216;12.396;2023-01-29T17:38:33;23.17;;;12.23;;
70365;SDS011;57787;48.216;12.396;2023-01-29T17:43:32;19.98;;;11.63;;
70365;SDS011;57787;48.216;12.396;2023-01-29T17:46:00;21.25;;;11.90;;
70365;SDS011;57787;48.216;12.396;2023-01-29T17:48:30;29.85;;;17.38;;
70365;SDS011;57787;48.216;12.396;2023-01-29T17:50:59;25.25;;;15.45;;
70365;SDS011;57787;48.216;12.396;2023-01-29T17:53:30;24.10;;;12.85;;
70365;SDS011;57787;48.216;12.396;2023-01-29T17:58:43;25.65;;;14.88;;
70365;SDS011;57787;48.216;12.396;2023-01-29T18:01:11;27.42;;;15.07;;
70365;SDS011;57787;48.216;12.396;2023-01-29T18:06:09;22.15;;;13.20;;
70365;SDS011;57787;48.216;12.396;2023-01-29T18:08:43;23.30;;;12.95;;
70365;SDS011;57787;48.216;12.396;2023-01-29T18:11:11;22.00;;;13.05;;